Terminal Aerodrome Forecast
Issued by NWS

Home | Current Version | Previous Version | Text Only | Print | Product List | Glossary On
Versions: 1 2 3 4 5 6 7 8 9 10 11 12 13 14 15 16 17 18 19
227
FTUS46 KSTO 211754 CCA
TAFMHR
TAF COR
KMHR 211754Z 2118/2218 20010KT P6SM VCSH BKN070
      TEMPO 2118/2122 BKN025
     FM220100 17005KT P6SM SCT250=

USA.gov is the U.S. government's official web portal to all federal, state and local government web resources and services.